Time;durP1;ratioP1;P1;durP2;ratioP2;P2;SDS_P1;SDS_P2;PMS_P1;PMS_P2;Temp;Humidity;BMP_temperature;BMP_pressure;BME280_temperature;BME280_humidity;BME280_pressure;Samples;Min_cycle;Max_cycle;Signal;HPM_P1;HPM_P2
2023/09/09 00:02:12;;;;;;;23.65;14.88;;;19.30;99.90;;;;;;5064362;28;20121;-74
2023/09/09 00:04:38;;;;;;;23.70;15.30;;;19.30;99.90;;;;;;5063765;28;20041;-74
2023/09/09 00:07:04;;;;;;;23.15;15.25;;;19.30;99.90;;;;;;5064975;28;20051;-75
2023/09/09 00:09:30;;;;;;;29.48;17.02;;;19.20;99.90;;;;;;5064033;28;20083;-74
2023/09/09 00:11:56;;;;;;;27.00;18.17;;;19.20;99.90;;;;;;5064548;28;20071;-75
2023/09/09 00:14:22;;;;;;;23.98;15.60;;;19.20;99.90;;;;;;5063162;28;20060;-75
2023/09/09 00:16:47;;;;;;;27.13;15.68;;;19.20;99.90;;;;;;5064546;28;20032;-75
2023/09/09 00:19:13;;;;;;;26.65;15.40;;;19.20;99.90;;;;;;5063876;28;20692;-74
2023/09/09 00:21:38;;;;;;;25.00;15.52;;;19.20;99.90;;;;;;5065125;28;20040;-75
2023/09/09 00:24:04;;;;;;;24.75;14.93;;;19.20;99.90;;;;;;5063486;28;20086;-75
2023/09/09 00:26:31;;;;;;;22.40;15.98;;;19.20;99.90;;;;;;5063745;28;20403;-75
2023/09/09 00:28:57;;;;;;;22.60;14.70;;;19.20;99.90;;;;;;5063370;28;20475;-75
2023/09/09 00:31:23;;;;;;;20.60;14.23;;;19.10;99.90;;;;;;5063703;28;20040;-74
2023/09/09 00:33:48;;;;;;;24.13;15.85;;;19.10;99.90;;;;;;5063413;28;20090;-75
2023/09/09 00:36:14;;;;;;;22.88;15.02;;;19.10;99.90;;;;;;5062803;28;20434;-75
2023/09/09 00:38:40;;;;;;;25.95;16.42;;;19.10;99.90;;;;;;5062350;28;20047;-75
2023/09/09 00:41:18;;;;;;;24.67;15.65;;;19.00;99.90;;;;;;5064337;28;20032;-74
2023/09/09 00:43:44;;;;;;;25.02;14.93;;;19.10;99.90;;;;;;5061107;28;20573;-74
2023/09/09 00:46:12;;;;;;;24.58;15.48;;;19.00;99.90;;;;;;5063608;28;20040;-75
2023/09/09 00:48:38;;;;;;;25.88;15.82;;;19.00;99.90;;;;;;5062818;28;20047;-75
2023/09/09 00:51:10;;;;;;;23.15;15.35;;;19.00;99.90;;;;;;5062849;28;20131;-74
2023/09/09 00:53:35;;;;;;;23.02;15.00;;;19.00;99.90;;;;;;5064249;28;20048;-75
2023/09/09 00:56:03;;;;;;;21.33;14.43;;;19.00;99.90;;;;;;5062758;28;20063;-75
2023/09/09 00:58:31;;;;;;;24.92;16.10;;;19.00;99.90;;;;;;5062403;28;20044;-75
2023/09/09 01:00:56;;;;;;;25.40;15.15;;;19.00;99.90;;;;;;5063487;28;20044;-75
2023/09/09 01:03:22;;;;;;;25.90;18.20;;;19.00;99.90;;;;;;5061579;28;20064;-75
2023/09/09 01:05:48;;;;;;;25.85;15.88;;;19.00;99.90;;;;;;5062069;28;20047;-75
2023/09/09 01:08:27;;;;;;;24.65;15.68;;;19.00;99.90;;;;;;5121112;23;20045;-75
2023/09/09 01:10:54;;;;;;;23.30;16.00;;;19.00;99.90;;;;;;5036498;28;20067;-75
2023/09/09 01:13:20;;;;;;;24.27;15.40;;;19.00;99.90;;;;;;5042465;28;20056;-74
2023/09/09 01:15:45;;;;;;;29.15;16.35;;;19.00;99.90;;;;;;5043391;28;20033;-75
2023/09/09 01:18:11;;;;;;;23.38;15.82;;;19.00;99.90;;;;;;5043079;28;20041;-75
2023/09/09 01:20:40;;;;;;;24.67;15.35;;;18.90;99.90;;;;;;5043988;28;20175;-75
2023/09/09 01:23:06;;;;;;;22.48;15.35;;;18.90;99.90;;;;;;5043629;28;20666;-75
2023/09/09 01:25:32;;;;;;;24.50;15.02;;;18.90;99.90;;;;;;5042850;28;20112;-74
2023/09/09 01:27:58;;;;;;;26.83;14.32;;;18.90;99.90;;;;;;5042009;28;21224;-75
2023/09/09 01:30:23;;;;;;;24.05;15.77;;;18.90;99.90;;;;;;5043176;28;20383;-74
2023/09/09 01:32:49;;;;;;;23.33;15.15;;;18.80;99.90;;;;;;5041082;28;20040;-75
2023/09/09 01:35:15;;;;;;;22.48;15.05;;;18.80;99.90;;;;;;5043161;28;20035;-75
2023/09/09 01:37:40;;;;;;;21.77;13.75;;;18.80;99.90;;;;;;5042324;28;20076;-75
2023/09/09 01:40:12;;;;;;;24.45;15.05;;;18.80;99.90;;;;;;5043185;28;20040;-75
2023/09/09 01:42:39;;;;;;;21.05;12.80;;;18.80;99.90;;;;;;5042814;28;20049;-75
2023/09/09 01:45:05;;;;;;;21.83;15.50;;;18.80;99.90;;;;;;5042421;28;20056;-75
2023/09/09 01:47:31;;;;;;;20.48;14.10;;;18.70;99.90;;;;;;5041344;28;20045;-75
2023/09/09 01:49:56;;;;;;;21.40;14.70;;;18.70;99.90;;;;;;5042918;28;20479;-74
2023/09/09 01:52:22;;;;;;;24.98;15.00;;;18.70;99.90;;;;;;5042628;28;20041;-74
2023/09/09 01:54:48;;;;;;;21.90;14.90;;;18.60;99.90;;;;;;5042931;28;20049;-74
2023/09/09 01:57:16;;;;;;;23.20;15.55;;;18.60;99.90;;;;;;5042143;28;20037;-75
2023/09/09 01:59:42;;;;;;;22.95;15.38;;;18.70;99.90;;;;;;5040717;28;20076;-75
2023/09/09 02:02:09;;;;;;;25.85;16.38;;;18.60;99.90;;;;;;5042945;28;20095;-74
2023/09/09 02:04:34;;;;;;;26.60;16.88;;;18.70;99.90;;;;;;5042835;28;20045;-75
2023/09/09 02:07:00;;;;;;;29.38;17.42;;;18.70;99.90;;;;;;5042698;28;20045;-75
2023/09/09 02:09:25;;;;;;;27.88;16.88;;;18.70;99.90;;;;;;5042216;28;20057;-74
2023/09/09 02:11:51;;;;;;;30.77;17.33;;;18.70;99.90;;;;;;5042680;28;20052;-74
2023/09/09 02:14:17;;;;;;;26.23;16.55;;;18.70;99.90;;;;;;5041409;28;20649;-75
2023/09/09 02:16:42;;;;;;;32.67;19.05;;;18.60;99.90;;;;;;5042553;28;20044;-75
2023/09/09 02:19:08;;;;;;;27.10;17.65;;;18.60;99.90;;;;;;5042644;28;20044;-74
2023/09/09 02:21:34;;;;;;;27.25;16.65;;;18.60;99.90;;;;;;5042854;28;20693;-75
2023/09/09 02:23:59;;;;;;;24.92;17.27;;;18.60;99.90;;;;;;5041701;28;20087;-75
2023/09/09 02:26:25;;;;;;;28.67;18.85;;;18.60;99.90;;;;;;5040946;28;20041;-74
2023/09/09 02:28:51;;;;;;;25.67;17.27;;;18.60;99.90;;;;;;5041495;28;20040;-74
2023/09/09 02:31:17;;;;;;;29.38;17.70;;;18.50;99.90;;;;;;5041383;28;20403;-75
2023/09/09 02:33:42;;;;;;;27.85;17.27;;;18.50;99.90;;;;;;5040749;28;20090;-75
2023/09/09 02:36:08;;;;;;;29.60;16.00;;;18.50;99.90;;;;;;5041233;28;20033;-74
2023/09/09 02:38:35;;;;;;;29.25;17.95;;;18.50;99.90;;;;;;5043303;28;20403;-74
2023/09/09 02:41:01;;;;;;;28.15;16.92;;;18.50;99.90;;;;;;5041349;28;20053;-74
2023/09/09 02:43:26;;;;;;;30.13;16.67;;;18.50;99.90;;;;;;5041114;28;20041;-74
2023/09/09 02:45:52;;;;;;;31.42;17.27;;;18.40;99.90;;;;;;5040997;28;20045;-74
2023/09/09 02:48:18;;;;;;;26.70;16.73;;;18.40;99.90;;;;;;5042665;28;20067;-74
2023/09/09 02:50:43;;;;;;;25.75;16.42;;;18.40;99.90;;;;;;5024193;28;20041;-75
2023/09/09 02:53:09;;;;;;;25.95;15.95;;;18.40;99.90;;;;;;5024309;28;20505;-75
2023/09/09 02:55:35;;;;;;;27.13;17.02;;;18.40;99.90;;;;;;5043163;28;20041;-74
2023/09/09 02:58:00;;;;;;;27.98;16.55;;;18.40;99.90;;;;;;5044792;28;20719;-74
2023/09/09 03:00:26;;;;;;;26.75;16.33;;;18.40;99.90;;;;;;5045708;28;20490;-74
2023/09/09 03:02:51;;;;;;;25.45;15.38;;;18.30;99.90;;;;;;5046208;28;20128;-74
2023/09/09 03:05:17;;;;;;;23.90;15.63;;;18.30;99.90;;;;;;5044736;28;20598;-75
2023/09/09 03:07:45;;;;;;;24.67;15.40;;;18.30;99.90;;;;;;5044141;28;20053;-74
2023/09/09 03:10:12;;;;;;;29.13;17.83;;;18.30;99.90;;;;;;5044135;28;20049;-74
2023/09/09 03:12:38;;;;;;;30.75;18.45;;;18.20;99.90;;;;;;5060836;28;20059;-74
2023/09/09 03:15:05;;;;;;;29.15;18.88;;;18.20;99.90;;;;;;5045767;28;20098;-74
2023/09/09 03:17:31;;;;;;;29.42;19.35;;;18.20;99.90;;;;;;5045333;28;20057;-74
2023/09/09 03:19:56;;;;;;;30.75;17.45;;;18.20;99.90;;;;;;5045856;28;20116;-74
2023/09/09 03:22:22;;;;;;;28.33;17.77;;;18.20;99.90;;;;;;5045187;28;20045;-75
2023/09/09 03:24:48;;;;;;;27.20;17.83;;;18.20;99.90;;;;;;5046117;28;20048;-74
2023/09/09 03:27:13;;;;;;;24.40;17.67;;;18.20;99.90;;;;;;5044436;28;20044;-74
2023/09/09 03:29:39;;;;;;;24.88;17.75;;;18.20;99.90;;;;;;5044390;28;20417;-74
2023/09/09 03:32:05;;;;;;;26.15;15.98;;;18.10;99.90;;;;;;5044849;28;20041;-74
2023/09/09 03:34:31;;;;;;;21.80;15.57;;;18.10;99.90;;;;;;5045177;28;20087;-74
2023/09/09 03:36:56;;;;;;;27.52;17.33;;;18.10;99.90;;;;;;5045442;28;20033;-74
2023/09/09 03:39:23;;;;;;;27.48;17.25;;;18.10;99.90;;;;;;5045248;28;20060;-75
2023/09/09 03:41:48;;;;;;;30.80;18.02;;;18.00;99.90;;;;;;5044031;28;20111;-75
2023/09/09 03:44:14;;;;;;;25.17;16.30;;;18.00;99.90;;;;;;5043110;28;20510;-75
2023/09/09 03:46:40;;;;;;;27.70;17.42;;;18.00;99.90;;;;;;5043308;28;20419;-74
2023/09/09 03:49:05;;;;;;;26.85;17.15;;;18.00;99.90;;;;;;5045278;28;20055;-74
2023/09/09 03:51:31;;;;;;;33.88;16.95;;;18.00;99.90;;;;;;5045214;28;20047;-75
2023/09/09 03:53:56;;;;;;;24.27;16.00;;;18.00;99.90;;;;;;5044701;28;20040;-75
2023/09/09 03:56:22;;;;;;;31.33;17.05;;;18.00;99.90;;;;;;5044939;28;20063;-74
2023/09/09 03:58:48;;;;;;;27.08;16.63;;;18.00;99.90;;;;;;5042586;28;20033;-74
2023/09/09 04:01:13;;;;;;;25.33;16.90;;;18.00;99.90;;;;;;5044346;28;20045;-75
2023/09/09 04:03:40;;;;;;;23.80;15.70;;;17.90;99.90;;;;;;5045224;28;20049;-74
2023/09/09 04:06:10;;;;;;;22.80;15.10;;;17.90;99.90;;;;;;5044795;28;20119;-74
2023/09/09 04:08:37;;;;;;;28.02;15.68;;;17.90;99.90;;;;;;5044051;28;20119;-74
2023/09/09 04:11:03;;;;;;;23.20;15.68;;;17.90;99.90;;;;;;5044653;28;20107;-74
2023/09/09 04:13:29;;;;;;;26.65;16.17;;;17.90;99.90;;;;;;5043567;28;20494;-74
2023/09/09 04:15:56;;;;;;;25.67;16.17;;;17.90;99.90;;;;;;5042922;28;20083;-74
2023/09/09 04:18:22;;;;;;;26.08;16.92;;;17.80;99.90;;;;;;5044175;28;20044;-74
2023/09/09 04:20:49;;;;;;;24.98;15.40;;;17.90;99.90;;;;;;5043335;28;20053;-75
2023/09/09 04:23:16;;;;;;;29.38;17.52;;;17.80;99.90;;;;;;5044055;28;20495;-75
2023/09/09 04:25:43;;;;;;;30.95;18.02;;;17.80;99.90;;;;;;5027024;28;20094;-74
2023/09/09 04:28:10;;;;;;;33.55;17.77;;;17.80;99.90;;;;;;5043248;28;20428;-74
2023/09/09 04:30:38;;;;;;;27.98;17.27;;;17.80;99.90;;;;;;5044398;28;20091;-74
2023/09/09 04:33:08;;;;;;;31.33;19.02;;;17.80;99.90;;;;;;5043116;28;20118;-74
2023/09/09 04:35:34;;;;;;;34.22;18.67;;;17.80;99.90;;;;;;5044399;28;20463;-74
2023/09/09 04:37:59;;;;;;;31.27;18.10;;;17.80;99.90;;;;;;5043909;28;20056;-74
2023/09/09 04:40:25;;;;;;;33.95;18.90;;;17.80;99.90;;;;;;5042713;28;20069;-74
2023/09/09 04:42:51;;;;;;;31.63;18.60;;;17.80;99.90;;;;;;5042452;28;20051;-74
2023/09/09 04:45:17;;;;;;;32.50;18.45;;;17.70;99.90;;;;;;5043520;28;20037;-75
2023/09/09 04:47:42;;;;;;;33.80;18.50;;;17.70;99.90;;;;;;5059068;28;20131;-75
2023/09/09 04:50:08;;;;;;;30.13;19.02;;;17.70;99.90;;;;;;5042547;28;20124;-74
2023/09/09 04:52:34;;;;;;;34.67;19.23;;;17.70;99.90;;;;;;5044468;28;20453;-74
2023/09/09 04:55:00;;;;;;;32.33;16.58;;;17.70;99.90;;;;;;5043474;28;20095;-74
2023/09/09 04:57:25;;;;;;;28.13;17.60;;;17.70;99.90;;;;;;5040951;28;20066;-74
2023/09/09 04:59:51;;;;;;;26.90;16.45;;;17.70;99.90;;;;;;5042388;28;20103;-75
2023/09/09 05:02:16;;;;;;;29.90;16.20;;;17.70;99.90;;;;;;5041769;28;20483;-74
2023/09/09 05:04:42;;;;;;;26.60;15.27;;;17.60;99.90;;;;;;5043770;28;20448;-74
2023/09/09 05:07:09;;;;;;;29.45;15.88;;;17.60;99.90;;;;;;5042986;28;20049;-74
2023/09/09 05:09:35;;;;;;;30.55;15.73;;;17.60;99.90;;;;;;5042725;28;20118;-74
2023/09/09 05:12:01;;;;;;;21.50;14.10;;;17.60;99.90;;;;;;5042257;28;20048;-75
2023/09/09 05:14:26;;;;;;;26.83;15.95;;;17.60;99.90;;;;;;5043165;28;20773;-74
2023/09/09 05:16:52;;;;;;;23.27;14.80;;;17.60;99.90;;;;;;5041862;28;20399;-74
2023/09/09 05:19:18;;;;;;;22.98;15.07;;;17.60;99.90;;;;;;5042988;28;20106;-75
2023/09/09 05:21:43;;;;;;;23.45;15.40;;;17.60;99.90;;;;;;5025135;28;20435;-74
2023/09/09 05:24:09;;;;;;;21.30;14.35;;;17.60;99.90;;;;;;5043269;28;20041;-75
2023/09/09 05:26:34;;;;;;;17.90;12.38;;;17.50;99.90;;;;;;5043435;28;20040;-74
2023/09/09 05:29:01;;;;;;;14.15;10.57;;;17.50;99.90;;;;;;5042173;28;20072;-74
2023/09/09 05:31:27;;;;;;;13.50;10.95;;;17.50;99.90;;;;;;5043161;28;20126;-74
2023/09/09 05:33:52;;;;;;;15.57;11.35;;;17.40;99.90;;;;;;5042976;28;20107;-75
2023/09/09 05:36:18;;;;;;;14.00;10.50;;;17.40;99.90;;;;;;5042705;28;20040;-74
2023/09/09 05:38:44;;;;;;;21.85;12.95;;;17.40;99.90;;;;;;5043022;28;20107;-74
2023/09/09 05:41:09;;;;;;;18.17;12.55;;;17.40;99.90;;;;;;5042726;28;20037;-74
2023/09/09 05:43:35;;;;;;;20.35;12.68;;;17.40;99.90;;;;;;5041784;28;20414;-74
2023/09/09 05:46:01;;;;;;;12.88;10.55;;;17.40;99.90;;;;;;5043241;28;20574;-74
2023/09/09 05:48:26;;;;;;;14.18;11.70;;;17.40;99.90;;;;;;5042539;28;20048;-74
2023/09/09 05:50:55;;;;;;;16.65;13.38;;;17.40;99.90;;;;;;5042995;28;20067;-74
2023/09/09 05:53:21;;;;;;;17.20;13.20;;;17.50;99.90;;;;;;5041369;28;20049;-75
2023/09/09 05:55:46;;;;;;;15.50;12.48;;;17.40;99.90;;;;;;5041385;28;20041;-75
2023/09/09 05:58:12;;;;;;;14.93;12.45;;;17.40;99.90;;;;;;5038288;28;20094;-75
2023/09/09 06:00:37;;;;;;;13.15;11.80;;;17.40;99.90;;;;;;5042031;28;20048;-75
2023/09/09 06:03:03;;;;;;;20.52;13.40;;;17.50;99.90;;;;;;5041976;28;20043;-75
2023/09/09 06:05:29;;;;;;;15.90;13.30;;;17.50;99.90;;;;;;5040263;28;20041;-75
2023/09/09 06:07:56;;;;;;;17.10;14.35;;;17.50;99.90;;;;;;5040793;28;20049;-75
2023/09/09 06:10:22;;;;;;;17.15;14.77;;;17.50;99.90;;;;;;5041332;28;20051;-75
2023/09/09 06:12:49;;;;;;;18.23;14.55;;;17.50;99.90;;;;;;5039083;28;20040;-75
2023/09/09 06:15:15;;;;;;;18.20;15.07;;;17.50;99.90;;;;;;5041483;28;20045;-75
2023/09/09 06:17:41;;;;;;;18.02;14.57;;;17.50;99.90;;;;;;5040767;28;20538;-75
2023/09/09 06:20:07;;;;;;;18.75;15.68;;;17.50;99.90;;;;;;5037100;28;20052;-75
2023/09/09 06:22:34;;;;;;;22.25;17.67;;;17.60;99.90;;;;;;5037469;28;20438;-76
2023/09/09 06:25:00;;;;;;;25.30;17.35;;;17.60;99.90;;;;;;5037971;28;20048;-75
2023/09/09 06:27:26;;;;;;;24.00;17.92;;;17.60;99.90;;;;;;5039159;28;20045;-75
2023/09/09 06:29:51;;;;;;;26.52;19.10;;;17.70;99.90;;;;;;5052420;28;20511;-75
2023/09/09 06:32:17;;;;;;;25.55;18.30;;;17.70;99.90;;;;;;5043029;28;20073;-75
2023/09/09 06:34:42;;;;;;;22.60;17.15;;;17.80;99.90;;;;;;5045101;28;20037;-75
2023/09/09 06:37:09;;;;;;;25.60;17.73;;;17.90;99.90;;;;;;5059727;28;20041;-75
2023/09/09 06:39:35;;;;;;;29.10;18.08;;;17.90;99.90;;;;;;5045216;28;20196;-75
2023/09/09 06:42:00;;;;;;;26.70;17.02;;;17.90;99.90;;;;;;5044551;28;20542;-75
2023/09/09 06:44:26;;;;;;;23.90;16.88;;;18.00;99.90;;;;;;5045915;28;20077;-78
2023/09/09 06:46:52;;;;;;;24.42;17.13;;;18.00;99.90;;;;;;5045744;28;20125;-75
2023/09/09 06:49:17;;;;;;;21.25;16.35;;;18.00;99.90;;;;;;5044483;28;20068;-76
2023/09/09 06:51:43;;;;;;;28.83;17.55;;;18.10;99.90;;;;;;5042788;28;20033;-75
2023/09/09 06:54:08;;;;;;;25.40;18.05;;;18.10;99.90;;;;;;5044118;28;20037;-75
2023/09/09 06:56:35;;;;;;;27.35;19.83;;;18.20;99.90;;;;;;5046976;28;20495;-75
2023/09/09 06:59:00;;;;;;;33.22;20.02;;;18.20;99.90;;;;;;5040921;28;20041;-75
2023/09/09 07:01:26;;;;;;;35.28;19.38;;;18.20;99.90;;;;;;5042901;28;20501;-75
2023/09/09 07:03:51;;;;;;;30.23;20.02;;;18.30;99.90;;;;;;5044568;28;20045;-75
2023/09/09 07:06:17;;;;;;;29.75;21.33;;;18.40;99.90;;;;;;5044007;28;20044;-75
2023/09/09 07:08:43;;;;;;;32.88;20.67;;;18.40;99.90;;;;;;5041067;28;20749;-74
2023/09/09 07:11:09;;;;;;;32.70;21.08;;;18.40;99.90;;;;;;5043456;28;20071;-75
2023/09/09 07:13:34;;;;;;;35.08;22.30;;;18.50;99.90;;;;;;5037434;28;20094;-74
2023/09/09 07:16:00;;;;;;;36.40;22.73;;;18.50;99.90;;;;;;5034915;28;20601;-75
2023/09/09 07:18:26;;;;;;;41.20;23.55;;;18.60;99.90;;;;;;5039899;28;20033;-75
2023/09/09 07:20:51;;;;;;;43.80;26.08;;;18.60;99.90;;;;;;5043427;28;20124;-74
2023/09/09 07:23:18;;;;;;;52.97;29.40;;;18.60;99.90;;;;;;5045060;28;20399;-75
2023/09/09 07:25:44;;;;;;;49.00;28.02;;;18.70;99.90;;;;;;5044359;28;20037;-75
2023/09/09 07:28:11;;;;;;;52.72;30.02;;;18.80;99.90;;;;;;5043653;28;20063;-75
2023/09/09 07:30:37;;;;;;;69.88;36.47;;;18.80;99.90;;;;;;5044504;28;20112;-75
2023/09/09 07:33:03;;;;;;;82.30;40.65;;;18.90;99.90;;;;;;5042422;28;20511;-75
2023/09/09 07:35:29;;;;;;;99.10;47.08;;;18.90;99.90;;;;;;5043716;28;20129;-75
2023/09/09 07:37:55;;;;;;;107.10;49.42;;;19.00;99.90;;;;;;5044594;28;20096;-77
2023/09/09 07:40:20;;;;;;;112.85;50.15;;;19.00;99.90;;;;;;5043547;28;20145;-77
2023/09/09 07:42:46;;;;;;;99.25;48.20;;;19.10;99.90;;;;;;5043096;28;20712;-75
2023/09/09 07:45:12;;;;;;;123.38;56.30;;;19.20;99.90;;;;;;5045197;28;20094;-75
2023/09/09 07:47:37;;;;;;;112.68;55.88;;;19.30;99.90;;;;;;5044764;28;20136;-75
2023/09/09 07:50:03;;;;;;;125.70;55.25;;;19.40;99.90;;;;;;5044805;28;20052;-74
2023/09/09 07:52:29;;;;;;;126.97;53.17;;;19.40;99.90;;;;;;5043633;28;20499;-75
2023/09/09 07:54:54;;;;;;;111.38;52.63;;;19.40;99.90;;;;;;5043158;28;20043;-74
2023/09/09 07:57:20;;;;;;;102.03;49.67;;;19.50;99.90;;;;;;5043506;28;20044;-75
2023/09/09 07:59:47;;;;;;;97.57;48.30;;;19.50;99.90;;;;;;5038761;28;20041;-75
2023/09/09 08:02:13;;;;;;;81.85;43.10;;;19.60;99.90;;;;;;5042093;28;20122;-74
2023/09/09 08:04:39;;;;;;;60.67;32.22;;;19.70;99.90;;;;;;5040419;28;20112;-75
2023/09/09 08:07:05;;;;;;;59.05;31.20;;;19.70;99.90;;;;;;5037542;28;20080;-74
2023/09/09 08:09:31;;;;;;;51.53;26.67;;;19.80;99.90;;;;;;5041915;28;20132;-74
2023/09/09 08:11:56;;;;;;;51.50;27.58;;;19.90;99.90;;;;;;5039922;28;20170;-75
2023/09/09 08:14:22;;;;;;;45.88;25.52;;;19.90;99.90;;;;;;5042991;28;20754;-74
2023/09/09 08:16:49;;;;;;;44.45;24.45;;;20.00;99.90;;;;;;5044476;28;20080;-75
2023/09/09 08:19:15;;;;;;;40.95;22.98;;;20.10;99.90;;;;;;5038624;28;20107;-75
2023/09/09 08:21:41;;;;;;;39.15;22.88;;;20.10;99.90;;;;;;5043619;28;20124;-75
2023/09/09 08:24:07;;;;;;;38.47;21.52;;;20.10;99.90;;;;;;5044528;28;20124;-75
2023/09/09 08:26:33;;;;;;;38.05;19.95;;;20.20;99.90;;;;;;5033479;28;20096;-75
2023/09/09 08:28:58;;;;;;;34.38;20.08;;;20.30;99.90;;;;;;5042927;28;20045;-75
2023/09/09 08:31:24;;;;;;;34.05;19.45;;;20.30;99.90;;;;;;5044011;28;20517;-75
2023/09/09 08:33:50;;;;;;;37.42;20.30;;;20.40;99.90;;;;;;5022849;28;20095;-78
2023/09/09 08:36:16;;;;;;;38.95;21.58;;;20.40;99.90;;;;;;5032451;28;20480;-76
2023/09/09 08:38:42;;;;;;;37.45;20.00;;;20.50;99.90;;;;;;5042898;28;20056;-74
2023/09/09 08:41:25;;;;;;;33.95;20.30;;;20.50;99.90;;;;;;5044437;28;20077;-74
2023/09/09 08:44:09;;;;;;;31.38;17.88;;;20.50;99.90;;;;;;5043853;28;20478;-74
2023/09/09 08:46:35;;;;;;;29.13;17.58;;;20.60;99.90;;;;;;5026154;28;20040;-74
2023/09/09 08:49:02;;;;;;;24.20;16.38;;;20.60;99.90;;;;;;5035677;28;20045;-74
2023/09/09 08:51:44;;;;;;;29.75;17.42;;;20.70;99.90;;;;;;5040923;28;20037;-74
2023/09/09 08:54:11;;;;;;;24.60;15.27;;;20.70;99.90;;;;;;5042566;28;20140;-74
2023/09/09 08:56:38;;;;;;;27.65;17.40;;;20.70;99.90;;;;;;5018382;28;20045;-75
2023/09/09 08:59:04;;;;;;;29.90;18.02;;;20.80;99.90;;;;;;5026661;28;20132;-74
2023/09/09 09:01:31;;;;;;;27.58;17.15;;;20.90;99.90;;;;;;5041334;28;20041;-74
2023/09/09 09:03:58;;;;;;;25.63;14.88;;;20.90;99.90;;;;;;5042479;28;20120;-73
2023/09/09 09:06:24;;;;;;;24.17;15.52;;;21.00;99.90;;;;;;5035524;28;20045;-74
2023/09/09 09:08:50;;;;;;;27.77;15.40;;;21.00;99.90;;;;;;5039788;28;20135;-73
2023/09/09 09:11:17;;;;;;;23.10;15.50;;;21.10;99.90;;;;;;5022112;28;20132;-74
2023/09/09 09:13:43;;;;;;;30.25;16.27;;;21.10;99.90;;;;;;5030688;28;20045;-74
2023/09/09 09:16:09;;;;;;;25.50;15.18;;;21.10;99.90;;;;;;5043535;28;20044;-75
2023/09/09 09:18:35;;;;;;;28.40;16.10;;;21.20;99.90;;;;;;5043395;28;20044;-74
2023/09/09 09:21:08;;;;;;;22.13;14.18;;;21.20;99.90;;;;;;5017610;28;20037;-73
2023/09/09 09:23:41;;;;;;;26.10;13.80;;;21.30;99.90;;;;;;5043864;28;20076;-73
2023/09/09 09:26:22;;;;;;;20.55;13.07;;;21.20;99.90;;;;;;5037370;28;20090;-74
2023/09/09 09:28:48;;;;;;;20.27;11.75;;;21.30;99.90;;;;;;5041566;28;20115;-74
2023/09/09 09:31:20;;;;;;;19.83;12.18;;;21.30;99.90;;;;;;5022257;28;20144;-74
2023/09/09 09:33:47;;;;;;;22.40;13.07;;;21.40;99.90;;;;;;5023326;28;20053;-73
2023/09/09 09:36:16;;;;;;;18.85;11.65;;;21.40;99.90;;;;;;5044314;28;20095;-74
2023/09/09 09:38:41;;;;;;;24.27;13.77;;;21.50;99.90;;;;;;5029455;28;20505;-73
2023/09/09 09:41:09;;;;;;;15.85;10.88;;;21.50;99.90;;;;;;5041838;28;20037;-73
2023/09/09 09:43:34;;;;;;;12.65;8.98;;;21.60;99.90;;;;;;5041792;28;20033;-73
2023/09/09 09:46:13;;;;;;;17.75;10.30;;;21.70;99.90;;;;;;5036920;28;20087;-74
2023/09/09 09:48:39;;;;;;;14.35;9.75;;;21.70;99.90;;;;;;5037900;28;20044;-75
2023/09/09 09:51:04;;;;;;;14.38;9.48;;;21.70;99.90;;;;;;5042180;28;20394;-73
2023/09/09 09:53:30;;;;;;;12.45;9.18;;;21.70;99.90;;;;;;5041057;28;20124;-73
2023/09/09 09:55:57;;;;;;;15.80;10.23;;;21.70;99.90;;;;;;5039397;28;20120;-73
2023/09/09 09:58:26;;;;;;;15.77;9.18;;;21.70;99.90;;;;;;5040072;28;20422;-73
2023/09/09 10:00:53;;;;;;;14.07;9.25;;;21.80;99.90;;;;;;5038624;28;20144;-74
2023/09/09 10:03:23;;;;;;;15.30;9.77;;;21.80;99.90;;;;;;5040564;28;20087;-74
2023/09/09 10:05:52;;;;;;;14.32;9.20;;;21.80;99.90;;;;;;5042226;28;20044;-73
2023/09/09 10:08:20;;;;;;;9.27;6.38;;;21.80;99.90;;;;;;5044158;28;20049;-73
2023/09/09 10:11:05;;;;;;;9.50;7.03;;;21.90;99.90;;;;;;5062534;28;20128;-73
2023/09/09 10:13:38;;;;;;;9.63;6.40;;;21.90;99.90;;;;;;5045541;28;20120;-73
2023/09/09 10:16:06;;;;;;;8.13;6.38;;;21.90;99.90;;;;;;5046131;28;20056;-73
2023/09/09 10:18:33;;;;;;;9.90;6.70;;;22.00;99.90;;;;;;5044820;28;20534;-74
2023/09/09 10:20:59;;;;;;;16.42;9.40;;;22.00;99.90;;;;;;5034678;28;20080;-73
2023/09/09 10:23:25;;;;;;;10.73;7.40;;;22.00;99.90;;;;;;5044799;28;20117;-74
2023/09/09 10:25:53;;;;;;;9.90;7.13;;;22.00;99.90;;;;;;5045503;28;20094;-73
2023/09/09 10:28:20;;;;;;;12.45;8.18;;;22.00;99.90;;;;;;5045080;28;20048;-73
2023/09/09 10:30:48;;;;;;;11.98;9.15;;;22.10;99.90;;;;;;5061910;28;20068;-77
2023/09/09 10:33:15;;;;;;;10.57;7.28;;;22.10;99.90;;;;;;5044545;28;20041;-77
2023/09/09 10:35:44;;;;;;;14.35;8.90;;;22.20;99.90;;;;;;5045522;28;20029;-77
2023/09/09 10:38:13;;;;;;;13.18;8.38;;;22.20;99.90;;;;;;5045895;28;20067;-79
2023/09/09 10:40:40;;;;;;;16.70;9.90;;;22.30;99.90;;;;;;5044615;28;20112;-80
2023/09/09 10:43:06;;;;;;;13.65;9.40;;;22.30;99.90;;;;;;5044080;28;20038;-78
2023/09/09 10:45:39;;;;;;;11.00;8.25;;;22.30;99.90;;;;;;5044468;28;20031;-78
2023/09/09 10:48:07;;;;;;;9.70;7.13;;;22.40;99.90;;;;;;5044417;28;20041;-78
2023/09/09 10:50:46;;;;;;;11.30;7.70;;;22.40;99.90;;;;;;5026532;28;20076;-77
2023/09/09 10:53:22;;;;;;;10.57;7.43;;;22.40;99.90;;;;;;5057408;28;20045;-77
2023/09/09 10:55:51;;;;;;;11.63;8.15;;;22.40;99.90;;;;;;5043583;28;20082;-76
2023/09/09 10:58:18;;;;;;;10.32;8.23;;;22.40;99.90;;;;;;5036453;28;20037;-78
2023/09/09 11:00:51;;;;;;;13.48;8.20;;;22.40;99.90;;;;;;5043816;28;20037;-78
2023/09/09 11:03:22;;;;;;;11.85;8.00;;;22.50;99.90;;;;;;5041376;28;20049;-74
2023/09/09 11:06:02;;;;;;;9.67;7.53;;;22.50;99.90;;;;;;5043662;28;20649;-74
2023/09/09 11:08:46;;;;;;;10.15;7.22;;;22.50;99.90;;;;;;5039073;28;20060;-75
2023/09/09 11:11:24;;;;;;;11.43;8.13;;;22.60;99.90;;;;;;5040727;28;20037;-75
2023/09/09 11:14:05;;;;;;;9.95;7.30;;;22.70;99.90;;;;;;5043906;28;20057;-76
2023/09/09 11:16:31;;;;;;;11.43;7.50;;;22.70;99.90;;;;;;5045097;28;20060;-76
2023/09/09 11:19:05;;;;;;;8.57;6.95;;;22.70;99.90;;;;;;5041448;28;20136;-75
2023/09/09 11:21:33;;;;;;;8.10;6.95;;;22.80;99.90;;;;;;5043563;28;20173;-75
2023/09/09 11:24:00;;;;;;;10.20;6.70;;;22.80;99.90;;;;;;5027667;28;20067;-83
2023/09/09 11:26:27;;;;;;;7.65;6.18;;;22.80;99.90;;;;;;5041430;28;20775;-75
2023/09/09 11:28:53;;;;;;;6.18;5.05;;;22.80;99.90;;;;;;5038708;28;20029;-73
2023/09/09 11:31:18;;;;;;;9.10;6.28;;;22.90;99.90;;;;;;5043276;28;20044;-74
2023/09/09 11:33:45;;;;;;;8.10;5.75;;;22.90;99.90;;;;;;5042559;28;20165;-71
2023/09/09 11:36:14;;;;;;;7.80;5.72;;;22.90;99.90;;;;;;5044769;28;20091;-73
2023/09/09 11:38:40;;;;;;;7.57;5.95;;;22.90;99.90;;;;;;5041939;28;20048;-74
2023/09/09 11:41:06;;;;;;;7.18;5.43;;;22.90;99.90;;;;;;5034202;28;20037;-74
2023/09/09 11:43:32;;;;;;;6.25;4.95;;;22.90;99.90;;;;;;5044579;28;20045;-74
2023/09/09 11:45:58;;;;;;;7.50;5.47;;;22.90;99.90;;;;;;5043760;28;20634;-74
2023/09/09 11:48:24;;;;;;;6.35;4.78;;;22.90;99.90;;;;;;5039783;28;20045;-75
2023/09/09 11:50:50;;;;;;;6.03;5.10;;;23.00;99.90;;;;;;5045327;28;20040;-75
2023/09/09 11:53:19;;;;;;;6.72;5.28;;;23.00;99.90;;;;;;5036037;28;20049;-75
2023/09/09 11:55:45;;;;;;;7.55;4.78;;;23.00;99.90;;;;;;5029316;28;20033;-74
2023/09/09 11:58:11;;;;;;;8.50;5.05;;;23.00;99.90;;;;;;5042160;28;20045;-76
2023/09/09 12:00:36;;;;;;;5.70;5.18;;;23.00;99.90;;;;;;5044693;28;20120;-75
2023/09/09 12:03:02;;;;;;;6.53;4.30;;;23.00;99.90;;;;;;5044038;28;20102;-75
2023/09/09 12:05:30;;;;;;;6.68;5.70;;;23.00;99.90;;;;;;5044054;28;20123;-75
2023/09/09 12:07:58;;;;;;;6.70;5.28;;;23.00;99.90;;;;;;5043881;28;20412;-76
2023/09/09 12:10:26;;;;;;;7.00;4.88;;;23.00;99.90;;;;;;5043209;28;20033;-75
2023/09/09 12:12:52;;;;;;;7.05;5.63;;;23.00;99.90;;;;;;5059337;28;20132;-75
2023/09/09 12:15:18;;;;;;;5.88;4.80;;;23.10;99.90;;;;;;5043228;28;20575;-76
2023/09/09 12:17:44;;;;;;;5.18;4.68;;;23.10;99.90;;;;;;5042408;28;20045;-76
2023/09/09 12:20:10;;;;;;;6.75;4.60;;;23.10;99.90;;;;;;5042392;28;20403;-76
2023/09/09 12:22:48;;;;;;;7.97;6.00;;;23.10;99.90;;;;;;5035927;28;20525;-76
2023/09/09 12:25:33;;;;;;;6.78;5.60;;;23.10;99.90;;;;;;5039447;28;20038;-75
2023/09/09 12:27:59;;;;;;;6.45;5.45;;;23.10;99.90;;;;;;5024429;28;20118;-75
2023/09/09 12:30:32;;;;;;;8.88;5.75;;;23.20;99.90;;;;;;5042084;28;20045;-77